TWB351 RKTN-RJNT
Flight info
| Callsign | TWB351 |
|---|---|
| Flight time | 1h 11m |
| Altitude | 29000 |
| Route | DOVUR1 LAPAL Y659 KPO Y685 SAPRA Y599 KABKI Y597 MIHOU Y45 URUSI |
| Aircraft | B738/M-SDE2E3FGHIRWY/LB1 |
Departure
| Time | 2026-04-24 08:35 |
|---|---|
| Airport | Daegu International Airport (RKTN) |
Arrival
| Time | 2026-04-24 09:46 |
|---|---|
| Airport | Toyama Kitokito Airport (RJNT) |
| Time | Latitude | Longitude | Altitude | Speed | Heading |
|---|---|---|---|---|---|
| 2026-04-24 08:32 | 35.89951 | 128.64493 | 129 ft | 6 kts | 105° |
| 2026-04-24 08:32 | 35.89961 | 128.64534 | 129 ft | 7 kts | 56° |
| 2026-04-24 08:32 | 35.90006 | 128.64586 | 129 ft | 8 kts | 33° |
| 2026-04-24 08:33 | 35.90032 | 128.64625 | 129 ft | 3 kts | 91° |
| 2026-04-24 08:33 | 35.90026 | 128.64647 | 129 ft | 0 kts | 119° |
| 2026-04-24 08:33 | 35.90025 | 128.64648 | 129 ft | 0 kts | 123° |
| 2026-04-24 08:34 | 35.89917 | 128.64847 | 129 ft | 65 kts | 125° |
| 2026-04-24 08:34 | 35.89523 | 128.65559 | 130 ft | 133 kts | 125° |
| 2026-04-24 08:34 | 35.88912 | 128.66655 | 414 ft | 164 kts | 124° |
| 2026-04-24 08:35 | 35.88255 | 128.67830 | 1030 ft | 174 kts | 124° |
| 2026-04-24 08:35 | 35.87547 | 128.69098 | 1650 ft | 190 kts | 124° |
| 2026-04-24 08:35 | 35.86774 | 128.70489 | 2209 ft | 205 kts | 123° |
| 2026-04-24 08:35 | 35.85959 | 128.71960 | 2942 ft | 209 kts | 122° |
| 2026-04-24 08:36 | 35.85478 | 128.73630 | 3526 ft | 218 kts | 92° |
| 2026-04-24 08:36 | 35.85581 | 128.75508 | 4231 ft | 223 kts | 80° |
| 2026-04-24 08:36 | 35.85854 | 128.77385 | 5138 ft | 221 kts | 79° |
| 2026-04-24 08:36 | 35.86137 | 128.79289 | 5697 ft | 233 kts | 79° |
| 2026-04-24 08:37 | 35.86427 | 128.81258 | 6358 ft | 242 kts | 79° |
| 2026-04-24 08:37 | 35.86735 | 128.83348 | 6896 ft | 256 kts | 79° |
| 2026-04-24 08:37 | 35.87059 | 128.85551 | 7637 ft | 262 kts | 79° |
| 2026-04-24 08:37 | 35.87383 | 128.87761 | 8253 ft | 268 kts | 79° |
| 2026-04-24 08:38 | 35.87716 | 128.90036 | 8936 ft | 269 kts | 79° |
| 2026-04-24 08:38 | 35.88047 | 128.92291 | 9562 ft | 272 kts | 79° |
| 2026-04-24 08:38 | 35.88386 | 128.94611 | 10178 ft | 275 kts | 79° |
| 2026-04-24 08:38 | 35.88725 | 128.96933 | 10553 ft | 287 kts | 79° |
| 2026-04-24 08:39 | 35.89092 | 128.99448 | 10674 ft | 307 kts | 79° |
| 2026-04-24 08:39 | 35.89476 | 129.02086 | 11092 ft | 315 kts | 79° |
| 2026-04-24 08:39 | 35.89869 | 129.04794 | 11388 ft | 326 kts | 79° |
| 2026-04-24 08:39 | 35.90271 | 129.07553 | 11866 ft | 331 kts | 82° |
| 2026-04-24 08:40 | 35.90369 | 129.10419 | 12347 ft | 335 kts | 90° |
| 2026-04-24 08:40 | 35.90270 | 129.13310 | 12850 ft | 338 kts | 92° |
| 2026-04-24 08:40 | 35.90138 | 129.16213 | 13327 ft | 342 kts | 92° |
| 2026-04-24 08:40 | 35.90003 | 129.19130 | 13794 ft | 345 kts | 92° |
| 2026-04-24 08:41 | 35.89869 | 129.22090 | 14282 ft | 347 kts | 92° |
| 2026-04-24 08:41 | 35.89736 | 129.25075 | 14748 ft | 350 kts | 92° |
| 2026-04-24 08:41 | 35.89602 | 129.28090 | 15208 ft | 354 kts | 93° |
| 2026-04-24 08:41 | 35.89467 | 129.31119 | 15688 ft | 357 kts | 93° |
| 2026-04-24 08:42 | 35.89332 | 129.34175 | 16109 ft | 360 kts | 93° |
| 2026-04-24 08:42 | 35.89196 | 129.37265 | 16526 ft | 364 kts | 94° |
| 2026-04-24 08:42 | 35.89057 | 129.40370 | 16932 ft | 368 kts | 94° |
| 2026-04-24 08:42 | 35.88914 | 129.43547 | 17369 ft | 372 kts | 94° |
| 2026-04-24 08:43 | 35.88769 | 129.46750 | 17790 ft | 377 kts | 94° |
| 2026-04-24 08:43 | 35.88625 | 129.49999 | 18302 ft | 381 kts | 93° |
| 2026-04-24 08:43 | 35.88477 | 129.53301 | 18822 ft | 386 kts | 94° |
| 2026-04-24 08:43 | 35.88336 | 129.56607 | 19361 ft | 392 kts | 93° |
| 2026-04-24 08:44 | 35.88207 | 129.59985 | 19895 ft | 397 kts | 93° |
| 2026-04-24 08:44 | 35.88096 | 129.63408 | 20437 ft | 402 kts | 93° |
| 2026-04-24 08:44 | 35.88003 | 129.66841 | 20968 ft | 408 kts | 93° |
| 2026-04-24 08:44 | 35.87926 | 129.70366 | 21507 ft | 413 kts | 93° |
| 2026-04-24 08:45 | 35.87862 | 129.73940 | 21984 ft | 418 kts | 92° |
| 2026-04-24 08:45 | 35.87803 | 129.77536 | 22423 ft | 424 kts | 92° |
| 2026-04-24 08:45 | 35.87741 | 129.81204 | 22940 ft | 429 kts | 93° |
| 2026-04-24 08:45 | 35.87664 | 129.84871 | 23453 ft | 434 kts | 93° |
| 2026-04-24 08:46 | 35.87559 | 129.88625 | 23953 ft | 439 kts | 94° |
| 2026-04-24 08:46 | 35.87416 | 129.92430 | 24459 ft | 443 kts | 95° |
| 2026-04-24 08:46 | 35.87234 | 129.96217 | 24940 ft | 447 kts | 96° |
| 2026-04-24 08:46 | 35.87007 | 130.00040 | 25415 ft | 451 kts | 97° |
| 2026-04-24 08:47 | 35.86734 | 130.03938 | 25894 ft | 456 kts | 97° |
| 2026-04-24 08:47 | 35.86425 | 130.07825 | 26394 ft | 459 kts | 98° |
| 2026-04-24 08:47 | 35.86087 | 130.11751 | 26966 ft | 461 kts | 98° |
| 2026-04-24 08:47 | 35.85763 | 130.15677 | 27441 ft | 463 kts | 98° |
| 2026-04-24 08:48 | 35.85464 | 130.19658 | 27841 ft | 467 kts | 97° |
| 2026-04-24 08:48 | 35.85193 | 130.23616 | 28232 ft | 470 kts | 97° |
| 2026-04-24 08:48 | 35.84932 | 130.27675 | 28657 ft | 470 kts | 97° |
| 2026-04-24 08:48 | 35.84687 | 130.31661 | 28948 ft | 473 kts | 97° |
| 2026-04-24 08:49 | 35.84446 | 130.35724 | 28980 ft | 474 kts | 96° |
| 2026-04-24 08:49 | 35.83986 | 130.43770 | 28982 ft | 469 kts | 96° |
| 2026-04-24 08:50 | 35.83536 | 130.51784 | 28982 ft | 470 kts | 96° |
| 2026-04-24 08:50 | 35.83086 | 130.59825 | 28981 ft | 470 kts | 96° |
| 2026-04-24 08:51 | 35.82640 | 130.67815 | 28981 ft | 468 kts | 97° |
| 2026-04-24 08:51 | 35.82294 | 130.75839 | 28979 ft | 469 kts | 91° |
| 2026-04-24 08:52 | 35.82577 | 130.83897 | 28980 ft | 473 kts | 89° |
| 2026-04-24 08:52 | 35.82914 | 130.91936 | 28981 ft | 469 kts | 89° |
| 2026-04-24 08:53 | 35.83235 | 130.99933 | 28981 ft | 468 kts | 89° |
| 2026-04-24 08:53 | 35.83547 | 131.07954 | 28996 ft | 468 kts | 89° |
| 2026-04-24 08:54 | 35.83850 | 131.15967 | 29020 ft | 469 kts | 89° |
| 2026-04-24 08:54 | 35.84149 | 131.24031 | 29021 ft | 469 kts | 89° |
| 2026-04-24 08:55 | 35.84440 | 131.32091 | 29022 ft | 473 kts | 89° |
| 2026-04-24 08:55 | 35.84728 | 131.40183 | 29020 ft | 473 kts | 89° |
| 2026-04-24 08:56 | 35.85009 | 131.48267 | 29021 ft | 472 kts | 89° |
| 2026-04-24 08:56 | 35.85285 | 131.56342 | 29077 ft | 473 kts | 89° |
| 2026-04-24 08:57 | 35.85554 | 131.64397 | 29075 ft | 473 kts | 89° |
| 2026-04-24 08:57 | 35.85823 | 131.72478 | 29075 ft | 472 kts | 90° |
| 2026-04-24 08:58 | 35.86087 | 131.80579 | 29076 ft | 478 kts | 91° |
| 2026-04-24 08:58 | 35.86349 | 131.88849 | 29074 ft | 481 kts | 91° |
| 2026-04-24 08:59 | 35.86603 | 131.97044 | 29075 ft | 479 kts | 91° |
| 2026-04-24 08:59 | 35.86850 | 132.05240 | 29075 ft | 479 kts | 91° |
| 2026-04-24 09:00 | 35.87091 | 132.13425 | 29075 ft | 478 kts | 91° |
| 2026-04-24 09:00 | 35.87325 | 132.21562 | 29073 ft | 472 kts | 90° |
| 2026-04-24 09:01 | 35.87552 | 132.29652 | 29076 ft | 471 kts | 90° |
| 2026-04-24 09:01 | 35.87772 | 132.37741 | 29075 ft | 473 kts | 90° |
| 2026-04-24 09:02 | 35.87989 | 132.45862 | 29075 ft | 473 kts | 90° |
| 2026-04-24 09:02 | 35.88200 | 132.53976 | 29075 ft | 472 kts | 90° |
| 2026-04-24 09:03 | 35.88403 | 132.62028 | 29075 ft | 474 kts | 90° |
| 2026-04-24 09:03 | 35.88607 | 132.70166 | 29075 ft | 474 kts | 90° |
| 2026-04-24 09:04 | 35.88807 | 132.78301 | 29075 ft | 474 kts | 90° |
| 2026-04-24 09:04 | 35.88999 | 132.86404 | 29075 ft | 474 kts | 90° |
| 2026-04-24 09:05 | 35.89184 | 132.94525 | 29075 ft | 474 kts | 90° |
| 2026-04-24 09:05 | 35.89364 | 133.02663 | 29103 ft | 474 kts | 90° |
| 2026-04-24 09:06 | 35.89537 | 133.10802 | 29102 ft | 474 kts | 90° |
| 2026-04-24 09:06 | 35.89704 | 133.18906 | 29102 ft | 474 kts | 90° |
| 2026-04-24 09:07 | 35.89867 | 133.27043 | 29101 ft | 475 kts | 90° |
| 2026-04-24 09:07 | 35.90102 | 133.39383 | 29101 ft | 478 kts | 90° |
| 2026-04-24 09:08 | 35.90251 | 133.47557 | 29102 ft | 477 kts | 90° |
| 2026-04-24 09:08 | 35.90394 | 133.55708 | 29102 ft | 477 kts | 90° |
| 2026-04-24 09:09 | 35.90532 | 133.63872 | 29102 ft | 477 kts | 90° |
| 2026-04-24 09:09 | 35.90669 | 133.72092 | 29102 ft | 477 kts | 91° |
| 2026-04-24 09:10 | 35.90801 | 133.80278 | 29103 ft | 481 kts | 92° |
| 2026-04-24 09:10 | 35.90926 | 133.88535 | 29101 ft | 483 kts | 92° |
| 2026-04-24 09:11 | 35.91044 | 133.96797 | 29102 ft | 481 kts | 92° |
| 2026-04-24 09:11 | 35.91156 | 134.05051 | 29102 ft | 482 kts | 92° |
| 2026-04-24 09:12 | 35.91262 | 134.13301 | 29102 ft | 482 kts | 92° |
| 2026-04-24 09:12 | 35.91362 | 134.21576 | 29102 ft | 482 kts | 92° |
| 2026-04-24 09:13 | 35.91456 | 134.29862 | 29102 ft | 486 kts | 92° |
| 2026-04-24 09:13 | 35.91544 | 134.38231 | 29101 ft | 490 kts | 92° |
| 2026-04-24 09:14 | 35.91698 | 134.46609 | 29100 ft | 489 kts | 89° |
| 2026-04-24 09:14 | 35.92732 | 134.54881 | 29100 ft | 493 kts | 75° |
| 2026-04-24 09:15 | 35.94732 | 134.63028 | 29102 ft | 496 kts | 73° |
| 2026-04-24 09:15 | 35.96804 | 134.71104 | 29102 ft | 495 kts | 73° |
| 2026-04-24 09:16 | 35.98913 | 134.79250 | 29103 ft | 499 kts | 73° |
| 2026-04-24 09:16 | 36.01035 | 134.87437 | 29101 ft | 501 kts | 73° |
| 2026-04-24 09:17 | 36.03154 | 134.95619 | 29102 ft | 500 kts | 73° |
| 2026-04-24 09:17 | 36.05269 | 135.03807 | 29102 ft | 500 kts | 73° |
| 2026-04-24 09:18 | 36.07378 | 135.11990 | 28958 ft | 502 kts | 73° |
| 2026-04-24 09:18 | 36.08427 | 135.16071 | 28697 ft | 495 kts | 73° |
| 2026-04-24 09:18 | 36.09461 | 135.20096 | 28438 ft | 485 kts | 73° |
| 2026-04-24 09:19 | 36.10473 | 135.24042 | 28167 ft | 481 kts | 73° |
| 2026-04-24 09:19 | 36.11485 | 135.27992 | 27827 ft | 482 kts | 73° |
| 2026-04-24 09:19 | 36.12498 | 135.31958 | 27449 ft | 481 kts | 73° |
| 2026-04-24 09:19 | 36.13483 | 135.35817 | 27129 ft | 474 kts | 72° |
| 2026-04-24 09:20 | 36.14479 | 135.39725 | 26819 ft | 470 kts | 72° |
| 2026-04-24 09:20 | 36.15454 | 135.43556 | 26494 ft | 466 kts | 72° |
| 2026-04-24 09:20 | 36.16411 | 135.47321 | 26173 ft | 462 kts | 72° |
| 2026-04-24 09:20 | 36.17378 | 135.51132 | 25845 ft | 458 kts | 72° |
| 2026-04-24 09:21 | 36.18330 | 135.54890 | 25542 ft | 461 kts | 72° |
| 2026-04-24 09:21 | 36.19291 | 135.58687 | 25177 ft | 461 kts | 72° |
| 2026-04-24 09:21 | 36.20241 | 135.62448 | 24798 ft | 457 kts | 72° |
| 2026-04-24 09:21 | 36.21176 | 135.66154 | 24429 ft | 455 kts | 73° |
| 2026-04-24 09:22 | 36.22113 | 135.69862 | 24070 ft | 452 kts | 72° |
| 2026-04-24 09:22 | 36.23054 | 135.73587 | 23722 ft | 449 kts | 72° |
| 2026-04-24 09:22 | 36.23975 | 135.77241 | 23398 ft | 443 kts | 73° |
| 2026-04-24 09:22 | 36.24881 | 135.80844 | 23088 ft | 434 kts | 73° |
| 2026-04-24 09:23 | 36.25779 | 135.84428 | 22790 ft | 434 kts | 72° |
| 2026-04-24 09:23 | 36.26670 | 135.87985 | 22523 ft | 434 kts | 72° |
| 2026-04-24 09:23 | 36.27557 | 135.91536 | 22251 ft | 432 kts | 72° |
| 2026-04-24 09:23 | 36.28445 | 135.95094 | 22005 ft | 430 kts | 71° |
| 2026-04-24 09:24 | 36.29319 | 135.98601 | 21789 ft | 427 kts | 71° |
| 2026-04-24 09:24 | 36.30194 | 136.02118 | 21575 ft | 425 kts | 71° |
| 2026-04-24 09:24 | 36.31067 | 136.05633 | 21360 ft | 422 kts | 71° |
| 2026-04-24 09:24 | 36.31921 | 136.09078 | 21149 ft | 420 kts | 71° |
| 2026-04-24 09:25 | 36.32779 | 136.12543 | 20927 ft | 417 kts | 71° |
| 2026-04-24 09:25 | 36.33626 | 136.15964 | 20701 ft | 414 kts | 71° |
| 2026-04-24 09:25 | 36.34468 | 136.19376 | 20451 ft | 409 kts | 71° |
| 2026-04-24 09:25 | 36.35289 | 136.22702 | 20200 ft | 405 kts | 71° |
| 2026-04-24 09:26 | 36.36112 | 136.26044 | 19932 ft | 402 kts | 71° |
| 2026-04-24 09:26 | 36.36924 | 136.29343 | 19681 ft | 400 kts | 71° |
| 2026-04-24 09:26 | 36.37736 | 136.32646 | 19495 ft | 399 kts | 71° |
| 2026-04-24 09:26 | 36.38555 | 136.35887 | 19307 ft | 396 kts | 69° |
| 2026-04-24 09:27 | 36.39560 | 136.39044 | 19091 ft | 391 kts | 63° |
| 2026-04-24 09:27 | 36.40832 | 136.42032 | 18934 ft | 385 kts | 55° |
| 2026-04-24 09:27 | 36.42315 | 136.44751 | 18890 ft | 383 kts | 51° |
| 2026-04-24 09:27 | 36.43903 | 136.47472 | 18791 ft | 385 kts | 51° |
| 2026-04-24 09:28 | 36.45470 | 136.50111 | 18508 ft | 382 kts | 51° |
| 2026-04-24 09:28 | 36.47038 | 136.52748 | 18125 ft | 375 kts | 51° |
| 2026-04-24 09:28 | 36.48589 | 136.55350 | 17765 ft | 372 kts | 51° |
| 2026-04-24 09:28 | 36.50115 | 136.57907 | 17356 ft | 371 kts | 51° |
| 2026-04-24 09:29 | 36.51639 | 136.60463 | 16874 ft | 368 kts | 51° |
| 2026-04-24 09:29 | 36.53162 | 136.63019 | 16377 ft | 364 kts | 51° |
| 2026-04-24 09:29 | 36.54646 | 136.65509 | 15898 ft | 359 kts | 51° |
| 2026-04-24 09:29 | 36.56123 | 136.67989 | 15470 ft | 356 kts | 51° |
| 2026-04-24 09:30 | 36.57596 | 136.70462 | 15083 ft | 353 kts | 51° |
| 2026-04-24 09:30 | 36.59054 | 136.72913 | 14701 ft | 352 kts | 51° |
| 2026-04-24 09:30 | 36.60511 | 136.75363 | 14298 ft | 349 kts | 51° |
| 2026-04-24 09:30 | 36.61940 | 136.77771 | 13899 ft | 347 kts | 51° |
| 2026-04-24 09:31 | 36.63372 | 136.80185 | 13493 ft | 344 kts | 51° |
| 2026-04-24 09:31 | 36.64771 | 136.82546 | 13076 ft | 341 kts | 51° |
| 2026-04-24 09:31 | 36.66166 | 136.84901 | 12674 ft | 337 kts | 51° |
| 2026-04-24 09:31 | 36.67558 | 136.87253 | 12271 ft | 334 kts | 51° |
| 2026-04-24 09:32 | 36.68907 | 136.89534 | 11869 ft | 326 kts | 51° |
| 2026-04-24 09:32 | 36.70228 | 136.91771 | 11457 ft | 313 kts | 51° |
| 2026-04-24 09:32 | 36.71495 | 136.93919 | 11056 ft | 302 kts | 51° |
| 2026-04-24 09:32 | 36.72711 | 136.95978 | 10818 ft | 289 kts | 51° |
| 2026-04-24 09:33 | 36.73900 | 136.97975 | 10530 ft | 286 kts | 49° |
| 2026-04-24 09:33 | 36.75277 | 136.99730 | 10301 ft | 282 kts | 38° |
| 2026-04-24 09:33 | 36.76791 | 137.01250 | 10115 ft | 278 kts | 35° |
| 2026-04-24 09:33 | 36.78315 | 137.02698 | 9937 ft | 278 kts | 34° |
| 2026-04-24 09:34 | 36.79827 | 137.04121 | 9735 ft | 267 kts | 34° |
| 2026-04-24 09:34 | 36.81308 | 137.05513 | 9514 ft | 264 kts | 34° |
| 2026-04-24 09:34 | 36.82753 | 137.06873 | 9244 ft | 263 kts | 35° |
| 2026-04-24 09:34 | 36.84203 | 137.08240 | 8969 ft | 261 kts | 35° |
| 2026-04-24 09:35 | 36.85634 | 137.09592 | 8680 ft | 253 kts | 35° |
| 2026-04-24 09:35 | 36.87015 | 137.10904 | 8304 ft | 246 kts | 37° |
| 2026-04-24 09:35 | 36.88172 | 137.12422 | 7963 ft | 240 kts | 55° |
| 2026-04-24 09:35 | 36.88770 | 137.14319 | 7757 ft | 237 kts | 80° |
| 2026-04-24 09:36 | 36.88584 | 137.16380 | 7625 ft | 246 kts | 108° |
| 2026-04-24 09:36 | 36.87733 | 137.18272 | 7495 ft | 251 kts | 123° |
| 2026-04-24 09:36 | 36.86642 | 137.19977 | 7349 ft | 251 kts | 126° |
| 2026-04-24 09:36 | 36.85521 | 137.21591 | 7093 ft | 244 kts | 133° |
| 2026-04-24 09:37 | 36.84130 | 137.22745 | 6760 ft | 243 kts | 158° |
| 2026-04-24 09:37 | 36.82457 | 137.22983 | 6497 ft | 240 kts | 190° |
| 2026-04-24 09:37 | 36.80967 | 137.22249 | 6290 ft | 228 kts | 212° |
| 2026-04-24 09:37 | 36.79692 | 137.21092 | 6028 ft | 225 kts | 219° |
| 2026-04-24 09:38 | 36.78502 | 137.19878 | 5772 ft | 219 kts | 219° |
| 2026-04-24 09:38 | 36.77314 | 137.18695 | 5481 ft | 216 kts | 217° |
| 2026-04-24 09:38 | 36.76155 | 137.17580 | 5239 ft | 204 kts | 217° |
| 2026-04-24 09:38 | 36.75057 | 137.16536 | 4924 ft | 198 kts | 216° |
| 2026-04-24 09:39 | 36.73973 | 137.15512 | 4662 ft | 189 kts | 217° |
| 2026-04-24 09:39 | 36.72938 | 137.14534 | 4390 ft | 184 kts | 217° |
| 2026-04-24 09:39 | 36.71924 | 137.13577 | 4178 ft | 182 kts | 217° |
| 2026-04-24 09:39 | 36.70912 | 137.12624 | 4013 ft | 182 kts | 217° |
| 2026-04-24 09:40 | 36.69912 | 137.11681 | 3870 ft | 182 kts | 217° |
| 2026-04-24 09:40 | 36.68891 | 137.10718 | 3721 ft | 182 kts | 217° |
| 2026-04-24 09:40 | 36.67894 | 137.09778 | 3629 ft | 180 kts | 217° |
| 2026-04-24 09:40 | 36.66887 | 137.08829 | 3542 ft | 181 kts | 218° |
| 2026-04-24 09:41 | 36.65881 | 137.07881 | 3438 ft | 181 kts | 218° |
| 2026-04-24 09:41 | 36.64870 | 137.06970 | 3330 ft | 180 kts | 212° |
| 2026-04-24 09:41 | 36.63730 | 137.06280 | 3208 ft | 180 kts | 198° |
| 2026-04-24 09:41 | 36.62522 | 137.05966 | 3105 ft | 177 kts | 182° |
| 2026-04-24 09:42 | 36.61312 | 137.06044 | 3075 ft | 173 kts | 167° |
| 2026-04-24 09:42 | 36.60183 | 137.06482 | 2899 ft | 170 kts | 152° |
| 2026-04-24 09:42 | 36.59198 | 137.07243 | 2747 ft | 166 kts | 136° |
| 2026-04-24 09:42 | 36.58405 | 137.08263 | 2593 ft | 158 kts | 122° |
| 2026-04-24 09:43 | 36.57856 | 137.09419 | 2385 ft | 153 kts | 109° |
| 2026-04-24 09:43 | 36.57539 | 137.10667 | 2171 ft | 150 kts | 96° |
| 2026-04-24 09:43 | 36.57449 | 137.11942 | 1969 ft | 148 kts | 84° |
| 2026-04-24 09:43 | 36.57580 | 137.13199 | 1744 ft | 145 kts | 72° |
| 2026-04-24 09:44 | 36.57916 | 137.14371 | 1515 ft | 143 kts | 60° |
| 2026-04-24 09:44 | 36.58435 | 137.15419 | 1276 ft | 140 kts | 49° |
| 2026-04-24 09:44 | 36.59098 | 137.16287 | 1073 ft | 138 kts | 38° |
| 2026-04-24 09:44 | 36.59884 | 137.16968 | 909 ft | 137 kts | 27° |
| 2026-04-24 09:45 | 36.60751 | 137.17444 | 776 ft | 137 kts | 18° |
| 2026-04-24 09:45 | 36.61674 | 137.17790 | 574 ft | 138 kts | 13° |
| 2026-04-24 09:45 | 36.62591 | 137.18076 | 383 ft | 136 kts | 13° |
| 2026-04-24 09:45 | 36.63510 | 137.18344 | 209 ft | 134 kts | 14° |
| 2026-04-24 09:46 | 36.64388 | 137.18597 | 86 ft | 118 kts | 13° |
| 2026-04-24 09:46 | 36.64974 | 137.18780 | 86 ft | 56 kts | 14° |
| 2026-04-24 09:46 | 36.65299 | 137.18878 | 86 ft | 42 kts | 12° |
| 2026-04-24 09:46 | 36.65546 | 137.18951 | 86 ft | 22 kts | 15° |
| 2026-04-24 09:47 | 36.65633 | 137.19016 | 86 ft | 12 kts | 45° |
| 2026-04-24 09:47 | 36.65687 | 137.19025 | 86 ft | 7 kts | 283° |
| 2026-04-24 09:47 | 36.65653 | 137.18986 | 86 ft | 7 kts | 199° |
| 2026-04-24 09:47 | 36.65587 | 137.18965 | 86 ft | 11 kts | 193° |
| 2026-04-24 09:48 | 36.65498 | 137.18939 | 86 ft | 14 kts | 193° |
| 2026-04-24 09:48 | 36.65391 | 137.18907 | 86 ft | 16 kts | 194° |
| 2026-04-24 09:48 | 36.65281 | 137.18874 | 86 ft | 16 kts | 193° |
| 2026-04-24 09:48 | 36.65169 | 137.18840 | 86 ft | 16 kts | 193° |
| 2026-04-24 09:49 | 36.65055 | 137.18805 | 86 ft | 16 kts | 194° |
| 2026-04-24 09:49 | 36.64942 | 137.18771 | 86 ft | 16 kts | 193° |
| 2026-04-24 09:49 | 36.64825 | 137.18736 | 86 ft | 17 kts | 193° |
| 2026-04-24 09:49 | 36.64709 | 137.18701 | 86 ft | 17 kts | 193° |
| 2026-04-24 09:50 | 36.64602 | 137.18671 | 86 ft | 12 kts | 190° |
| 2026-04-24 09:50 | 36.64536 | 137.18713 | 86 ft | 11 kts | 112° |
| 2026-04-24 09:50 | 36.64496 | 137.18776 | 86 ft | 7 kts | 145° |
| 2026-04-24 09:50 | 36.64473 | 137.18814 | 87 ft | 3 kts | 113° |
| 2026-04-24 09:51 | 36.64466 | 137.18839 | 87 ft | 2 kts | 108° |
| 2026-04-24 09:51 | 36.64463 | 137.18851 | 87 ft | 1 kts | 108° |
| 2026-04-24 09:51 | 36.64462 | 137.18854 | 87 ft | 0 kts | 108° |